sensor_id;sensor_type;location;lat;lon;timestamp;pressure;altitude;pressure_sealevel;temperature;humidity
28310;BME280;15571;50.974;13.936;2024-01-30T00:02:33;101694.22;;;5.13;100.00
28310;BME280;15571;50.974;13.936;2024-01-30T00:05:36;101692.44;;;5.12;100.00
28310;BME280;15571;50.974;13.936;2024-01-30T00:08:38;101688.91;;;5.10;100.00
28310;BME280;15571;50.974;13.936;2024-01-30T00:11:40;101686.25;;;5.09;100.00
28310;BME280;15571;50.974;13.936;2024-01-30T00:14:42;101691.34;;;5.28;100.00
28310;BME280;15571;50.974;13.936;2024-01-30T00:17:44;101695.41;;;5.22;100.00
28310;BME280;15571;50.974;13.936;2024-01-30T00:20:48;101684.53;;;5.30;100.00
28310;BME280;15571;50.974;13.936;2024-01-30T00:23:50;101688.44;;;5.42;100.00
28310;BME280;15571;50.974;13.936;2024-01-30T00:26:55;101688.81;;;5.30;100.00
28310;BME280;15571;50.974;13.936;2024-01-30T00:29:57;101689.66;;;5.29;100.00
28310;BME280;15571;50.974;13.936;2024-01-30T00:32:58;101688.56;;;5.24;100.00
28310;BME280;15571;50.974;13.936;2024-01-30T00:36:05;101682.50;;;5.23;100.00
28310;BME280;15571;50.974;13.936;2024-01-30T00:39:07;101683.25;;;5.21;100.00
28310;BME280;15571;50.974;13.936;2024-01-30T00:42:10;101681.56;;;5.21;100.00
28310;BME280;15571;50.974;13.936;2024-01-30T00:45:12;101685.94;;;5.22;100.00
28310;BME280;15571;50.974;13.936;2024-01-30T00:48:14;101681.97;;;5.32;100.00
28310;BME280;15571;50.974;13.936;2024-01-30T00:51:20;101679.38;;;5.32;100.00
28310;BME280;15571;50.974;13.936;2024-01-30T00:54:22;101692.25;;;5.29;100.00
28310;BME280;15571;50.974;13.936;2024-01-30T00:57:24;101684.66;;;5.12;100.00
28310;BME280;15571;50.974;13.936;2024-01-30T01:00:28;101688.91;;;5.10;100.00
28310;BME280;15571;50.974;13.936;2024-01-30T01:03:33;101702.59;;;5.06;100.00
28310;BME280;15571;50.974;13.936;2024-01-30T01:06:36;101690.00;;;4.94;100.00
28310;BME280;15571;50.974;13.936;2024-01-30T01:09:41;101689.75;;;5.09;100.00
28310;BME280;15571;50.974;13.936;2024-01-30T01:12:43;101698.97;;;5.24;100.00
28310;BME280;15571;50.974;13.936;2024-01-30T01:15:45;101694.41;;;5.18;100.00
28310;BME280;15571;50.974;13.936;2024-01-30T01:18:47;101698.00;;;5.22;100.00
28310;BME280;15571;50.974;13.936;2024-01-30T01:21:50;101694.78;;;5.27;100.00
28310;BME280;15571;50.974;13.936;2024-01-30T01:24:52;101693.41;;;5.14;100.00
28310;BME280;15571;50.974;13.936;2024-01-30T01:27:54;101682.66;;;5.05;100.00
28310;BME280;15571;50.974;13.936;2024-01-30T01:30:56;101683.16;;;5.18;100.00
28310;BME280;15571;50.974;13.936;2024-01-30T01:34:05;101685.16;;;5.25;100.00
28310;BME280;15571;50.974;13.936;2024-01-30T01:37:08;101678.88;;;5.20;100.00
28310;BME280;15571;50.974;13.936;2024-01-30T01:40:10;101677.59;;;5.08;100.00
28310;BME280;15571;50.974;13.936;2024-01-30T01:43:12;101681.38;;;5.17;100.00
28310;BME280;15571;50.974;13.936;2024-01-30T01:46:14;101678.19;;;5.24;100.00
28310;BME280;15571;50.974;13.936;2024-01-30T01:49:16;101679.59;;;5.16;100.00
28310;BME280;15571;50.974;13.936;2024-01-30T01:52:19;101679.09;;;5.03;100.00
28310;BME280;15571;50.974;13.936;2024-01-30T01:55:21;101680.75;;;5.01;100.00
28310;BME280;15571;50.974;13.936;2024-01-30T01:58:25;101677.09;;;4.96;100.00
28310;BME280;15571;50.974;13.936;2024-01-30T02:01:29;101680.06;;;5.05;100.00
28310;BME280;15571;50.974;13.936;2024-01-30T02:04:31;101678.13;;;5.01;100.00
28310;BME280;15571;50.974;13.936;2024-01-30T02:07:37;101685.28;;;5.07;100.00
28310;BME280;15571;50.974;13.936;2024-01-30T02:10:39;101686.28;;;5.10;100.00
28310;BME280;15571;50.974;13.936;2024-01-30T02:13:41;101675.44;;;4.98;100.00
28310;BME280;15571;50.974;13.936;2024-01-30T02:16:43;101673.78;;;5.00;100.00
28310;BME280;15571;50.974;13.936;2024-01-30T02:19:45;101670.13;;;4.95;100.00
28310;BME280;15571;50.974;13.936;2024-01-30T02:22:48;101668.34;;;4.94;100.00
28310;BME280;15571;50.974;13.936;2024-01-30T02:25:50;101672.56;;;4.92;100.00
28310;BME280;15571;50.974;13.936;2024-01-30T02:28:53;101669.38;;;4.76;100.00
28310;BME280;15571;50.974;13.936;2024-01-30T02:31:55;101676.72;;;4.87;100.00
28310;BME280;15571;50.974;13.936;2024-01-30T02:34:57;101666.69;;;4.96;100.00
28310;BME280;15571;50.974;13.936;2024-01-30T02:38:00;101663.16;;;4.94;100.00
28310;BME280;15571;50.974;13.936;2024-01-30T02:41:04;101662.91;;;4.88;100.00
28310;BME280;15571;50.974;13.936;2024-01-30T02:44:06;101663.28;;;4.97;100.00
28310;BME280;15571;50.974;13.936;2024-01-30T02:47:08;101659.69;;;4.93;100.00
28310;BME280;15571;50.974;13.936;2024-01-30T02:50:12;101655.69;;;4.80;100.00
28310;BME280;15571;50.974;13.936;2024-01-30T02:53:16;101653.03;;;4.79;100.00
28310;BME280;15571;50.974;13.936;2024-01-30T02:56:18;101655.31;;;4.92;100.00
28310;BME280;15571;50.974;13.936;2024-01-30T02:59:20;101654.41;;;4.92;100.00
28310;BME280;15571;50.974;13.936;2024-01-30T03:02:22;101651.94;;;4.95;100.00
28310;BME280;15571;50.974;13.936;2024-01-30T03:05:27;101651.38;;;5.02;100.00
28310;BME280;15571;50.974;13.936;2024-01-30T03:08:30;101641.00;;;5.02;100.00
28310;BME280;15571;50.974;13.936;2024-01-30T03:11:32;101639.75;;;4.92;100.00
28310;BME280;15571;50.974;13.936;2024-01-30T03:14:34;101648.00;;;5.05;100.00
28310;BME280;15571;50.974;13.936;2024-01-30T03:17:36;101638.47;;;5.04;100.00
28310;BME280;15571;50.974;13.936;2024-01-30T03:20:38;101639.34;;;5.04;100.00
28310;BME280;15571;50.974;13.936;2024-01-30T03:23:44;101643.84;;;5.08;100.00
28310;BME280;15571;50.974;13.936;2024-01-30T03:26:46;101641.38;;;4.90;100.00
28310;BME280;15571;50.974;13.936;2024-01-30T03:29:48;101635.81;;;4.81;100.00
28310;BME280;15571;50.974;13.936;2024-01-30T03:32:49;101643.16;;;4.91;100.00
28310;BME280;15571;50.974;13.936;2024-01-30T03:35:51;101643.84;;;4.87;100.00
28310;BME280;15571;50.974;13.936;2024-01-30T03:38:55;101644.84;;;4.91;100.00
28310;BME280;15571;50.974;13.936;2024-01-30T03:42:00;101648.16;;;4.87;100.00
28310;BME280;15571;50.974;13.936;2024-01-30T03:45:05;101642.16;;;4.88;100.00
28310;BME280;15571;50.974;13.936;2024-01-30T03:48:07;101642.25;;;4.91;100.00
28310;BME280;15571;50.974;13.936;2024-01-30T03:51:09;101642.03;;;4.85;100.00
28310;BME280;15571;50.974;13.936;2024-01-30T03:54:16;101639.19;;;4.78;100.00
28310;BME280;15571;50.974;13.936;2024-01-30T03:57:18;101636.06;;;4.66;100.00
28310;BME280;15571;50.974;13.936;2024-01-30T04:00:20;101636.59;;;4.78;100.00
28310;BME280;15571;50.974;13.936;2024-01-30T04:03:22;101638.00;;;4.70;100.00
28310;BME280;15571;50.974;13.936;2024-01-30T04:06:23;101639.63;;;4.68;100.00
28310;BME280;15571;50.974;13.936;2024-01-30T04:09:27;101633.06;;;4.55;100.00
28310;BME280;15571;50.974;13.936;2024-01-30T04:12:29;101634.31;;;4.65;100.00
28310;BME280;15571;50.974;13.936;2024-01-30T04:15:31;101636.69;;;4.81;100.00
28310;BME280;15571;50.974;13.936;2024-01-30T04:18:36;101630.13;;;4.68;100.00
28310;BME280;15571;50.974;13.936;2024-01-30T04:21:38;101631.03;;;4.69;100.00
28310;BME280;15571;50.974;13.936;2024-01-30T04:24:41;101624.94;;;4.68;100.00
28310;BME280;15571;50.974;13.936;2024-01-30T04:27:43;101634.44;;;4.68;100.00
28310;BME280;15571;50.974;13.936;2024-01-30T04:30:45;101632.53;;;4.64;100.00
28310;BME280;15571;50.974;13.936;2024-01-30T04:33:47;101634.16;;;4.62;100.00
28310;BME280;15571;50.974;13.936;2024-01-30T04:36:49;101633.34;;;4.63;100.00
28310;BME280;15571;50.974;13.936;2024-01-30T04:39:53;101631.72;;;4.65;100.00
28310;BME280;15571;50.974;13.936;2024-01-30T04:42:57;101628.63;;;4.74;100.00
28310;BME280;15571;50.974;13.936;2024-01-30T04:45:59;101625.69;;;4.66;100.00
28310;BME280;15571;50.974;13.936;2024-01-30T04:49:00;101630.66;;;4.60;100.00
28310;BME280;15571;50.974;13.936;2024-01-30T04:52:04;101627.47;;;4.67;100.00
28310;BME280;15571;50.974;13.936;2024-01-30T04:55:07;101633.44;;;4.64;100.00
28310;BME280;15571;50.974;13.936;2024-01-30T04:58:09;101634.00;;;4.78;100.00
28310;BME280;15571;50.974;13.936;2024-01-30T05:01:14;101637.31;;;4.76;100.00
28310;BME280;15571;50.974;13.936;2024-01-30T05:04:16;101634.44;;;4.68;100.00
28310;BME280;15571;50.974;13.936;2024-01-30T05:07:18;101633.34;;;4.63;100.00
28310;BME280;15571;50.974;13.936;2024-01-30T05:10:21;101632.66;;;4.67;100.00
28310;BME280;15571;50.974;13.936;2024-01-30T05:13:23;101635.41;;;4.70;100.00
28310;BME280;15571;50.974;13.936;2024-01-30T05:16:25;101638.09;;;4.73;100.00
28310;BME280;15571;50.974;13.936;2024-01-30T05:19:29;101633.28;;;4.61;100.00
28310;BME280;15571;50.974;13.936;2024-01-30T05:22:31;101624.75;;;4.64;100.00
28310;BME280;15571;50.974;13.936;2024-01-30T05:25:34;101634.16;;;4.62;100.00
28310;BME280;15571;50.974;13.936;2024-01-30T05:28:36;101625.69;;;4.66;100.00
28310;BME280;15571;50.974;13.936;2024-01-30T05:31:38;101624.88;;;4.67;100.00
28310;BME280;15571;50.974;13.936;2024-01-30T05:34:40;101630.22;;;4.70;100.00
28310;BME280;15571;50.974;13.936;2024-01-30T05:37:44;101627.09;;;4.58;100.00
28310;BME280;15571;50.974;13.936;2024-01-30T05:40:47;101626.97;;;4.55;100.00
28310;BME280;15571;50.974;13.936;2024-01-30T05:43:51;101624.03;;;4.47;100.00
28310;BME280;15571;50.974;13.936;2024-01-30T05:46:53;101630.75;;;4.63;100.00
28310;BME280;15571;50.974;13.936;2024-01-30T05:49:54;101628.28;;;4.66;100.00
28310;BME280;15571;50.974;13.936;2024-01-30T05:52:56;101632.28;;;4.58;100.00
28310;BME280;15571;50.974;13.936;2024-01-30T05:56:00;101633.47;;;4.45;100.00
28310;BME280;15571;50.974;13.936;2024-01-30T05:59:02;101636.56;;;4.57;100.00
28310;BME280;15571;50.974;13.936;2024-01-30T06:02:04;101629.69;;;4.58;100.00
28310;BME280;15571;50.974;13.936;2024-01-30T06:05:06;101627.59;;;4.49;100.00
28310;BME280;15571;50.974;13.936;2024-01-30T06:08:09;101637.47;;;4.58;100.00
28310;BME280;15571;50.974;13.936;2024-01-30T06:11:12;101633.09;;;4.57;100.00
28310;BME280;15571;50.974;13.936;2024-01-30T06:14:14;101623.59;;;4.57;100.00
28310;BME280;15571;50.974;13.936;2024-01-30T06:17:16;101634.06;;;4.59;100.00
28310;BME280;15571;50.974;13.936;2024-01-30T06:20:18;101626.97;;;4.55;100.00
28310;BME280;15571;50.974;13.936;2024-01-30T06:23:20;101630.66;;;4.60;100.00
28310;BME280;15571;50.974;13.936;2024-01-30T06:26:23;101632.28;;;4.58;100.00
28310;BME280;15571;50.974;13.936;2024-01-30T06:29:27;101633.53;;;4.46;100.00
28310;BME280;15571;50.974;13.936;2024-01-30T06:32:32;101635.84;;;4.60;100.00
28310;BME280;15571;50.974;13.936;2024-01-30T06:35:34;101639.25;;;4.59;100.00
28310;BME280;15571;50.974;13.936;2024-01-30T06:38:40;101633.06;;;4.55;100.00
28310;BME280;15571;50.974;13.936;2024-01-30T06:41:44;101640.06;;;4.58;100.00
28310;BME280;15571;50.974;13.936;2024-01-30T06:44:46;101620.50;;;4.66;100.00
28310;BME280;15571;50.974;13.936;2024-01-30T06:47:48;101625.13;;;4.52;100.00
28310;BME280;15571;50.974;13.936;2024-01-30T06:50:52;101633.94;;;4.56;100.00
28310;BME280;15571;50.974;13.936;2024-01-30T06:53:54;101627.63;;;4.70;100.00
28310;BME280;15571;50.974;13.936;2024-01-30T06:56:59;101631.94;;;4.71;100.00
28310;BME280;15571;50.974;13.936;2024-01-30T07:00:01;101627.66;;;4.72;100.00
28310;BME280;15571;50.974;13.936;2024-01-30T07:03:03;101633.28;;;4.82;100.00
28310;BME280;15571;50.974;13.936;2024-01-30T07:06:05;101626.59;;;4.88;100.00
28310;BME280;15571;50.974;13.936;2024-01-30T07:09:07;101631.50;;;4.81;100.00
28310;BME280;15571;50.974;13.936;2024-01-30T07:12:11;101631.19;;;4.95;100.00
28310;BME280;15571;50.974;13.936;2024-01-30T07:15:13;101629.47;;;4.95;100.00
28310;BME280;15571;50.974;13.936;2024-01-30T07:18:18;101630.06;;;4.88;100.00
28310;BME280;15571;50.974;13.936;2024-01-30T07:21:20;101637.78;;;4.87;100.00
28310;BME280;15571;50.974;13.936;2024-01-30T07:24:25;101629.47;;;4.95;100.00
28310;BME280;15571;50.974;13.936;2024-01-30T07:27:28;101636.06;;;4.87;100.00
28310;BME280;15571;50.974;13.936;2024-01-30T07:30:30;101634.38;;;5.10;100.00
28310;BME280;15571;50.974;13.936;2024-01-30T07:33:32;101640.88;;;4.99;100.00
28310;BME280;15571;50.974;13.936;2024-01-30T07:36:34;101647.13;;;5.04;100.00
28310;BME280;15571;50.974;13.936;2024-01-30T07:39:36;101633.94;;;5.21;100.00
28310;BME280;15571;50.974;13.936;2024-01-30T07:42:40;101642.78;;;5.26;100.00
28310;BME280;15571;50.974;13.936;2024-01-30T07:45:45;101649.69;;;5.25;100.00
28310;BME280;15571;50.974;13.936;2024-01-30T07:48:47;101645.25;;;5.23;100.00
28310;BME280;15571;50.974;13.936;2024-01-30T07:51:48;101649.41;;;5.18;100.00
28310;BME280;15571;50.974;13.936;2024-01-30T07:54:51;101645.63;;;5.32;100.00
28310;BME280;15571;50.974;13.936;2024-01-30T07:58:25;101639.66;;;5.35;100.00
28310;BME280;15571;50.974;13.936;2024-01-30T08:01:27;101639.91;;;5.41;100.00
28310;BME280;15571;50.974;13.936;2024-01-30T08:04:29;101636.50;;;5.42;100.00
28310;BME280;15571;50.974;13.936;2024-01-30T08:07:33;101633.34;;;5.51;100.00
28310;BME280;15571;50.974;13.936;2024-01-30T08:10:35;101633.75;;;5.61;100.00
28310;BME280;15571;50.974;13.936;2024-01-30T08:13:38;101625.25;;;5.66;100.00
28310;BME280;15571;50.974;13.936;2024-01-30T08:16:41;101633.19;;;5.70;100.00
28310;BME280;15571;50.974;13.936;2024-01-30T08:19:43;101638.53;;;5.73;100.00
28310;BME280;15571;50.974;13.936;2024-01-30T08:22:49;101622.66;;;5.90;100.00
28310;BME280;15571;50.974;13.936;2024-01-30T08:25:51;101621.50;;;5.82;100.00
28310;BME280;15571;50.974;13.936;2024-01-30T08:28:54;101620.06;;;5.90;100.00
28310;BME280;15571;50.974;13.936;2024-01-30T08:31:56;101615.75;;;5.90;100.00
28310;BME280;15571;50.974;13.936;2024-01-30T08:34:59;101622.19;;;6.00;100.00
28310;BME280;15571;50.974;13.936;2024-01-30T08:38:04;101620.00;;;6.11;100.00
28310;BME280;15571;50.974;13.936;2024-01-30T08:41:06;101617.78;;;6.23;100.00
28310;BME280;15571;50.974;13.936;2024-01-30T08:44:10;101615.81;;;6.16;100.00
28310;BME280;15571;50.974;13.936;2024-01-30T08:47:12;101615.97;;;6.21;100.00
28310;BME280;15571;50.974;13.936;2024-01-30T08:50:14;101614.44;;;6.26;100.00
28310;BME280;15571;50.974;13.936;2024-01-30T08:53:16;101613.84;;;6.35;100.00
28310;BME280;15571;50.974;13.936;2024-01-30T08:56:20;101614.63;;;6.32;100.00
28310;BME280;15571;50.974;13.936;2024-01-30T08:59:24;101612.25;;;6.38;100.00
28310;BME280;15571;50.974;13.936;2024-01-30T09:02:28;101617.72;;;6.46;100.00
28310;BME280;15571;50.974;13.936;2024-01-30T09:05:30;101619.16;;;6.38;100.00
28310;BME280;15571;50.974;13.936;2024-01-30T09:08:32;101625.31;;;6.40;100.00
28310;BME280;15571;50.974;13.936;2024-01-30T09:11:34;101621.41;;;6.53;100.00
28310;BME280;15571;50.974;13.936;2024-01-30T09:14:38;101621.28;;;6.50;100.00
28310;BME280;15571;50.974;13.936;2024-01-30T09:17:43;101625.66;;;6.51;100.00
28310;BME280;15571;50.974;13.936;2024-01-30T09:20:46;101629.69;;;6.41;100.00
28310;BME280;15571;50.974;13.936;2024-01-30T09:23:47;101628.53;;;6.59;100.00
28310;BME280;15571;50.974;13.936;2024-01-30T09:26:49;101624.00;;;6.53;100.00
28310;BME280;15571;50.974;13.936;2024-01-30T09:29:53;101619.59;;;6.50;100.00
28310;BME280;15571;50.974;13.936;2024-01-30T09:32:55;101625.03;;;6.58;100.00
28310;BME280;15571;50.974;13.936;2024-01-30T09:35:57;101629.00;;;6.73;100.00
28310;BME280;15571;50.974;13.936;2024-01-30T09:38:58;101625.97;;;6.60;100.00
28310;BME280;15571;50.974;13.936;2024-01-30T09:42:02;101637.88;;;6.79;100.00
28310;BME280;15571;50.974;13.936;2024-01-30T09:45:08;101630.22;;;6.84;100.00
28310;BME280;15571;50.974;13.936;2024-01-30T09:48:13;101637.25;;;6.87;100.00
28310;BME280;15571;50.974;13.936;2024-01-30T09:51:14;101637.22;;;6.85;100.00
28310;BME280;15571;50.974;13.936;2024-01-30T09:54:17;101631.06;;;6.83;100.00
28310;BME280;15571;50.974;13.936;2024-01-30T09:57:20;101638.13;;;6.87;100.00
28310;BME280;15571;50.974;13.936;2024-01-30T10:00:24;101639.28;;;6.95;100.00
28310;BME280;15571;50.974;13.936;2024-01-30T10:03:27;101640.78;;;6.89;100.00
28310;BME280;15571;50.974;13.936;2024-01-30T10:06:30;101635.38;;;7.10;100.00
28310;BME280;15571;50.974;13.936;2024-01-30T10:09:34;101641.22;;;7.03;100.00
28310;BME280;15571;50.974;13.936;2024-01-30T10:12:36;101639.59;;;7.06;100.00
28310;BME280;15571;50.974;13.936;2024-01-30T10:15:39;101646.19;;;7.22;100.00
28310;BME280;15571;50.974;13.936;2024-01-30T10:18:41;101640.16;;;7.23;100.00
28310;BME280;15571;50.974;13.936;2024-01-30T10:21:43;101631.44;;;7.23;100.00
28310;BME280;15571;50.974;13.936;2024-01-30T10:24:48;101631.22;;;7.15;100.00
28310;BME280;15571;50.974;13.936;2024-01-30T10:27:53;101635.00;;;7.26;100.00
28310;BME280;15571;50.974;13.936;2024-01-30T10:31:00;101622.69;;;7.21;100.00
28310;BME280;15571;50.974;13.936;2024-01-30T10:34:02;101605.44;;;7.24;100.00
28310;BME280;15571;50.974;13.936;2024-01-30T10:37:07;101613.34;;;7.27;100.00
28310;BME280;15571;50.974;13.936;2024-01-30T10:40:13;101606.19;;;7.20;100.00
28310;BME280;15571;50.974;13.936;2024-01-30T10:43:16;101599.34;;;7.24;100.00
28310;BME280;15571;50.974;13.936;2024-01-30T10:46:22;101596.50;;;7.16;100.00
28310;BME280;15571;50.974;13.936;2024-01-30T10:49:26;101598.91;;;7.39;100.00
28310;BME280;15571;50.974;13.936;2024-01-30T10:52:29;101602.50;;;7.42;100.00
28310;BME280;15571;50.974;13.936;2024-01-30T10:55:31;101596.34;;;7.40;100.00
28310;BME280;15571;50.974;13.936;2024-01-30T10:58:33;101579.13;;;7.44;100.00
28310;BME280;15571;50.974;13.936;2024-01-30T11:01:36;101586.50;;;7.59;100.00
28310;BME280;15571;50.974;13.936;2024-01-30T11:04:40;101580.47;;;7.61;100.00
28310;BME280;15571;50.974;13.936;2024-01-30T11:07:42;101575.06;;;7.55;100.00
28310;BME280;15571;50.974;13.936;2024-01-30T11:10:45;101578.81;;;7.63;100.00
28310;BME280;15571;50.974;13.936;2024-01-30T11:13:47;101569.69;;;7.49;100.00
28310;BME280;15571;50.974;13.936;2024-01-30T11:16:53;101565.66;;;7.59;100.00
28310;BME280;15571;50.974;13.936;2024-01-30T11:19:55;101562.97;;;7.57;100.00
28310;BME280;15571;50.974;13.936;2024-01-30T11:23:00;101554.34;;;7.60;100.00
28310;BME280;15571;50.974;13.936;2024-01-30T11:26:06;101552.66;;;7.60;100.00
28310;BME280;15571;50.974;13.936;2024-01-30T11:29:08;101540.56;;;7.62;100.00
28310;BME280;15571;50.974;13.936;2024-01-30T11:32:16;101538.81;;;7.63;100.00
28310;BME280;15571;50.974;13.936;2024-01-30T11:35:23;101539.78;;;7.67;100.00
28310;BME280;15571;50.974;13.936;2024-01-30T11:38:26;101534.91;;;7.79;100.00
28310;BME280;15571;50.974;13.936;2024-01-30T11:41:28;101528.16;;;7.87;100.00
28310;BME280;15571;50.974;13.936;2024-01-30T11:44:31;101529.53;;;7.73;100.00
28310;BME280;15571;50.974;13.936;2024-01-30T11:47:36;101527.31;;;7.87;100.00
28310;BME280;15571;50.974;13.936;2024-01-30T11:50:38;101531.72;;;7.89;100.00
28310;BME280;15571;50.974;13.936;2024-01-30T11:53:41;101527.59;;;7.66;100.00
28310;BME280;15571;50.974;13.936;2024-01-30T11:56:43;101517.25;;;7.69;100.00
28310;BME280;15571;50.974;13.936;2024-01-30T11:59:45;101509.44;;;7.69;100.00
28310;BME280;15571;50.974;13.936;2024-01-30T12:02:50;101507.84;;;7.74;100.00
28310;BME280;15571;50.974;13.936;2024-01-30T12:05:56;101507.03;;;7.76;100.00
28310;BME280;15571;50.974;13.936;2024-01-30T12:08:58;101506.56;;;7.91;100.00
28310;BME280;15571;50.974;13.936;2024-01-30T12:12:01;101506.38;;;7.85;100.00
28310;BME280;15571;50.974;13.936;2024-01-30T12:15:03;101507.75;;;7.71;100.00
28310;BME280;15571;50.974;13.936;2024-01-30T12:18:07;101501.03;;;7.79;100.00
28310;BME280;15571;50.974;13.936;2024-01-30T12:21:09;101498.56;;;7.85;100.00
28310;BME280;15571;50.974;13.936;2024-01-30T12:24:11;101497.66;;;7.83;100.00
28310;BME280;15571;50.974;13.936;2024-01-30T12:27:15;101505.03;;;8.00;100.00
28310;BME280;15571;50.974;13.936;2024-01-30T12:30:17;101510.16;;;7.97;100.00
28310;BME280;15571;50.974;13.936;2024-01-30T12:33:22;101505.72;;;7.92;100.00
28310;BME280;15571;50.974;13.936;2024-01-30T12:36:27;101505.75;;;7.94;100.00
28310;BME280;15571;50.974;13.936;2024-01-30T12:39:30;101500.31;;;7.86;100.00
28310;BME280;15571;50.974;13.936;2024-01-30T12:42:32;101498.03;;;7.99;100.00
28310;BME280;15571;50.974;13.936;2024-01-30T12:45:33;101503.34;;;8.02;100.00
28310;BME280;15571;50.974;13.936;2024-01-30T12:48:37;101498.03;;;7.99;100.00
28310;BME280;15571;50.974;13.936;2024-01-30T12:51:39;101499.66;;;7.93;100.00
28310;BME280;15571;50.974;13.936;2024-01-30T12:54:41;101485.88;;;7.99;100.00
28310;BME280;15571;50.974;13.936;2024-01-30T12:57:45;101490.91;;;7.91;100.00
28310;BME280;15571;50.974;13.936;2024-01-30T13:00:48;101487.34;;;7.88;100.00
28310;BME280;15571;50.974;13.936;2024-01-30T13:03:54;101483.53;;;7.75;100.00
28310;BME280;15571;50.974;13.936;2024-01-30T13:06:57;101490.13;;;7.95;100.00
28310;BME280;15571;50.974;13.936;2024-01-30T13:10:03;101495.22;;;7.91;100.00
28310;BME280;15571;50.974;13.936;2024-01-30T13:13:05;101480.25;;;7.82;100.00
28310;BME280;15571;50.974;13.936;2024-01-30T13:16:07;101482.16;;;7.89;100.00
28310;BME280;15571;50.974;13.936;2024-01-30T13:19:10;101489.38;;;8.00;100.00
28310;BME280;15571;50.974;13.936;2024-01-30T13:22:12;101479.56;;;7.89;100.00
28310;BME280;15571;50.974;13.936;2024-01-30T13:25:14;101476.75;;;7.82;100.00
28310;BME280;15571;50.974;13.936;2024-01-30T13:28:19;101474.72;;;7.70;100.00
28310;BME280;15571;50.974;13.936;2024-01-30T13:31:21;101465.16;;;7.70;100.00
28310;BME280;15571;50.974;13.936;2024-01-30T13:34:24;101463.56;;;7.75;100.00
28310;BME280;15571;50.974;13.936;2024-01-30T13:37:29;101472.31;;;7.77;100.00
28310;BME280;15571;50.974;13.936;2024-01-30T13:40:31;101480.75;;;7.69;100.00
28310;BME280;15571;50.974;13.936;2024-01-30T13:43:33;101471.34;;;7.74;100.00
28310;BME280;15571;50.974;13.936;2024-01-30T13:46:34;101462.66;;;7.75;100.00
28310;BME280;15571;50.974;13.936;2024-01-30T13:49:38;101465.81;;;7.61;100.00
28310;BME280;15571;50.974;13.936;2024-01-30T13:52:40;101469.03;;;7.53;100.00
28310;BME280;15571;50.974;13.936;2024-01-30T13:55:42;101468.16;;;7.52;100.00
28310;BME280;15571;50.974;13.936;2024-01-30T13:58:44;101465.94;;;7.66;100.00
28310;BME280;15571;50.974;13.936;2024-01-30T14:01:48;101464.88;;;7.59;100.00
28310;BME280;15571;50.974;13.936;2024-01-30T14:04:51;101448.31;;;7.57;100.00
28310;BME280;15571;50.974;13.936;2024-01-30T14:07:53;101449.25;;;7.59;100.00
28310;BME280;15571;50.974;13.936;2024-01-30T14:10:57;101442.81;;;7.14;100.00
28310;BME280;15571;50.974;13.936;2024-01-30T14:13:59;101445.72;;;7.25;100.00
28310;BME280;15571;50.974;13.936;2024-01-30T14:17:01;101451.09;;;7.31;100.00
28310;BME280;15571;50.974;13.936;2024-01-30T14:20:04;101454.56;;;7.30;100.00
28310;BME280;15571;50.974;13.936;2024-01-30T14:23:07;101446.09;;;7.07;100.00
28310;BME280;15571;50.974;13.936;2024-01-30T14:26:09;101448.06;;;7.16;100.00
28310;BME280;15571;50.974;13.936;2024-01-30T14:29:14;101440.19;;;7.13;100.00
28310;BME280;15571;50.974;13.936;2024-01-30T14:32:16;101449.31;;;6.98;100.00
28310;BME280;15571;50.974;13.936;2024-01-30T14:35:19;101448.03;;;6.84;100.00
28310;BME280;15571;50.974;13.936;2024-01-30T14:38:21;101448.19;;;6.90;100.00
28310;BME280;15571;50.974;13.936;2024-01-30T14:41:25;101451.19;;;6.74;100.00
28310;BME280;15571;50.974;13.936;2024-01-30T14:44:30;101435.31;;;6.64;100.00
28310;BME280;15571;50.974;13.936;2024-01-30T14:47:32;101454.53;;;6.69;100.00
28310;BME280;15571;50.974;13.936;2024-01-30T14:50:37;101459.59;;;6.65;100.00
28310;BME280;15571;50.974;13.936;2024-01-30T14:53:39;101453.00;;;6.47;100.00
28310;BME280;15571;50.974;13.936;2024-01-30T14:56:41;101457.22;;;6.44;100.00
28310;BME280;15571;50.974;13.936;2024-01-30T14:59:43;101454.41;;;6.37;100.00
28310;BME280;15571;50.974;13.936;2024-01-30T15:02:49;101456.38;;;6.17;100.00
28310;BME280;15571;50.974;13.936;2024-01-30T15:05:52;101468.56;;;5.92;100.00
28310;BME280;15571;50.974;13.936;2024-01-30T15:08:55;101458.16;;;5.92;100.00
28310;BME280;15571;50.974;13.936;2024-01-30T15:11:57;101458.50;;;6.02;100.00
28310;BME280;15571;50.974;13.936;2024-01-30T15:15:01;101455.81;;;6.00;100.00
28310;BME280;15571;50.974;13.936;2024-01-30T15:18:06;101454.09;;;5.75;100.00
28310;BME280;15571;50.974;13.936;2024-01-30T15:21:12;101448.53;;;5.90;100.00
28310;BME280;15571;50.974;13.936;2024-01-30T15:24:14;101449.66;;;5.98;100.00
28310;BME280;15571;50.974;13.936;2024-01-30T15:27:18;101461.06;;;5.76;100.00
28310;BME280;15571;50.974;13.936;2024-01-30T15:30:20;101462.97;;;5.56;100.00
28310;BME280;15571;50.974;13.936;2024-01-30T15:33:22;101456.88;;;5.55;100.00
28310;BME280;15571;50.974;13.936;2024-01-30T15:36:25;101457.78;;;5.56;100.00
28310;BME280;15571;50.974;13.936;2024-01-30T15:39:27;101459.22;;;5.48;100.00
28310;BME280;15571;50.974;13.936;2024-01-30T15:42:29;101458.28;;;5.45;100.00
28310;BME280;15571;50.974;13.936;2024-01-30T15:45:34;101451.13;;;5.38;100.00